Time;durP1;ratioP1;P1;durP2;ratioP2;P2;SDS_P1;SDS_P2;PMS_P1;PMS_P2;Temp;Humidity;BMP_temperature;BMP_pressure;BME280_temperature;BME280_humidity;BME280_pressure;Samples;Min_cycle;Max_cycle;Signal;HPM_P1;HPM_P2
2023/12/17 00:01:44;;;;;;;5.50;2.50;;;;;;;;;;5050628;28;20029;-73
2023/12/17 00:04:48;;;;;;;9.27;2.78;;;;;;;;;;5050926;28;20057;-73
2023/12/17 00:07:52;;;;;;;7.72;1.98;;;;;;;;;;5050616;28;20037;-72
2023/12/17 00:10:57;;;;;;;10.90;2.85;;;10.40;79.40;;;;;;5050825;28;20041;-73
2023/12/17 00:14:01;;;;;;;5.63;1.90;;;;;;;;;;5050621;28;20040;-72
2023/12/17 00:17:06;;;;;;;8.88;2.47;;;;;;;;;;5050813;28;20482;-73
2023/12/17 00:20:10;;;;;;;5.70;2.50;;;;;;;;;;5038192;28;20508;-73
2023/12/17 00:23:14;;;;;;;7.90;2.42;;;;;;;;;;5049527;28;20036;-73
2023/12/17 00:26:18;;;;;;;6.40;2.38;;;10.50;80.70;;;;;;5038250;28;20370;-73
2023/12/17 00:29:24;;;;;;;4.43;2.17;;;10.70;79.00;;;;;;5050420;28;20047;-72
2023/12/17 00:32:27;;;;;;;8.13;2.22;;;10.60;79.40;;;;;;5050505;28;20044;-72
2023/12/17 00:35:31;;;;;;;8.70;2.47;;;10.70;79.20;;;;;;5050354;28;20036;-72
2023/12/17 00:38:35;;;;;;;7.28;2.13;;;10.60;79.50;;;;;;5049773;28;20063;-73
2023/12/17 00:41:40;;;;;;;5.05;2.53;;;10.40;81.80;;;;;;5050663;28;20044;-73
2023/12/17 00:44:44;;;;;;;7.40;2.90;;;;;;;;;;5050526;28;20400;-72
2023/12/17 00:47:48;;;;;;;6.95;2.75;;;;;;;;;;5050410;28;20041;-72
2023/12/17 00:50:53;;;;;;;7.10;2.55;;;;;;;;;;5050330;28;20378;-72
2023/12/17 00:53:58;;;;;;;6.95;2.55;;;;;;;;;;5052877;28;20184;-73
2023/12/17 00:57:02;;;;;;;7.10;2.65;;;;;;;;;;5053834;28;20041;-73
2023/12/17 01:00:07;;;;;;;6.57;2.80;;;;;;;;;;5053776;28;20040;-72
2023/12/17 01:03:11;;;;;;;6.88;2.63;;;10.30;81.10;;;;;;5053933;28;20045;-73
2023/12/17 01:06:15;;;;;;;8.18;3.42;;;;;;;;;;5053074;28;20420;-72
2023/12/17 01:09:19;;;;;;;12.40;4.15;;;;;;;;;;5053416;28;20057;-74
2023/12/17 01:12:24;;;;;;;19.90;8.20;;;;;;;;;;5041556;28;20045;-72
2023/12/17 01:15:28;;;;;;;11.93;4.55;;;;;;;;;;5053688;28;20041;-74
2023/12/17 01:18:32;;;;;;;26.80;10.63;;;;;;;;;;5053456;28;20041;-74
2023/12/17 01:21:37;;;;;;;6.15;2.60;;;;;;;;;;5053621;28;20539;-74
2023/12/17 01:24:41;;;;;;;4.45;2.08;;;9.90;83.10;;;;;;5052829;28;20044;-74
2023/12/17 01:27:46;;;;;;;9.07;2.22;;;;;;;;;;5053033;28;20037;-74
2023/12/17 01:30:51;;;;;;;5.20;2.03;;;;;;;;;;5053196;28;20044;-72
2023/12/17 01:33:58;;;;;;;6.00;2.22;;;10.10;82.80;;;;;;5053309;28;20041;-72
2023/12/17 01:37:02;;;;;;;4.85;1.95;;;10.30;81.20;;;;;;5052907;28;20048;-72
2023/12/17 01:40:07;;;;;;;5.65;2.38;;;9.10;82.50;;;;;;5052362;28;20068;-72
2023/12/17 01:43:11;;;;;;;3.65;1.50;;;9.90;81.10;;;;;;5052240;28;20033;-72
2023/12/17 01:46:15;;;;;;;4.65;1.42;;;10.40;82.90;;;;;;5053265;28;20060;-74
2023/12/17 01:49:19;;;;;;;10.05;2.10;;;10.20;80.50;;;;;;5053229;28;20167;-73
2023/12/17 01:52:23;;;;;;;4.35;1.50;;;10.10;83.70;;;;;;5052290;28;20052;-73
2023/12/17 01:55:27;;;;;;;5.28;1.70;;;10.50;82.00;;;;;;5052291;28;20047;-73
2023/12/17 01:58:32;;;;;;;6.20;1.50;;;10.20;84.30;;;;;;5052848;28;20649;-73
2023/12/17 02:01:36;;;;;;;6.45;1.77;;;10.50;82.60;;;;;;5051941;28;20048;-73
2023/12/17 02:05:01;;;;;;;4.45;1.90;;;10.30;84.40;;;;;;5051812;28;20048;-73
2023/12/17 02:08:05;;;;;;;4.55;1.80;;;9.20;83.80;;;;;;5052532;28;20056;-73
2023/12/17 02:11:10;;;;;;;5.05;1.77;;;;;;;;;;5052285;28;20048;-73
2023/12/17 02:14:14;;;;;;;5.47;1.63;;;;;;;;;;5052412;28;20041;-72
2023/12/17 02:17:26;;;;;;;7.70;1.65;;;10.30;82.90;;;;;;5052565;28;20473;-72
2023/12/17 02:20:32;;;;;;;6.97;1.95;;;10.20;83.10;;;;;;5052578;28;20040;-72
2023/12/17 02:23:36;;;;;;;5.22;1.85;;;;;;;;;;5052106;28;20429;-74
2023/12/17 02:26:41;;;;;;;3.78;1.50;;;9.00;84.80;;;;;;5052907;28;20045;-74
2023/12/17 02:29:46;;;;;;;4.47;1.70;;;10.10;84.20;;;;;;5052160;28;20033;-74
2023/12/17 02:32:51;;;;;;;5.18;2.00;;;10.20;86.00;;;;;;5052143;28;20063;-74
2023/12/17 02:35:55;;;;;;;5.70;2.10;;;10.00;84.60;;;;;;5052105;28;20036;-74
2023/12/17 02:38:59;;;;;;;8.05;1.95;;;10.00;86.40;;;;;;5051267;28;20389;-74
2023/12/17 02:42:03;;;;;;;8.18;2.38;;;9.80;86.10;;;;;;5052158;28;20104;-73
2023/12/17 02:45:08;;;;;;;7.25;1.70;;;10.50;84.70;;;;;;5052199;28;20485;-73
2023/12/17 02:48:13;;;;;;;6.20;1.42;;;9.80;85.00;;;;;;5051900;28;20040;-73
2023/12/17 02:51:16;;;;;;;4.53;1.60;;;10.00;84.50;;;;;;5051821;28;20041;-73
2023/12/17 02:54:23;;;;;;;5.90;1.30;;;10.60;82.30;;;;;;5051895;28;20043;-73
2023/12/17 02:57:28;;;;;;;5.68;1.50;;;10.10;84.80;;;;;;5051936;28;20048;-73
2023/12/17 03:00:32;;;;;;;2.92;1.58;;;10.00;85.40;;;;;;5050682;28;20048;-74
2023/12/17 03:03:36;;;;;;;5.00;1.92;;;12.50;87.60;;;;;;5051563;28;20060;-73
2023/12/17 03:06:41;;;;;;;5.03;1.73;;;;;;;;;;5051285;28;20040;-74
2023/12/17 03:09:45;;;;;;;4.68;1.27;;;11.60;88.00;;;;;;5051228;28;20049;-74
2023/12/17 03:12:49;;;;;;;5.30;1.23;;;9.90;87.60;;;;;;5050771;28;20044;-73
2023/12/17 03:15:53;;;;;;;5.80;1.40;;;10.50;85.20;;;;;;5051402;28;20045;-74
2023/12/17 03:18:57;;;;;;;5.97;1.48;;;10.00;87.80;;;;;;5051536;28;20044;-73
2023/12/17 03:22:01;;;;;;;3.85;1.40;;;10.40;85.50;;;;;;5051570;28;20047;-73
2023/12/17 03:25:05;;;;;;;5.03;1.40;;;12.70;89.40;;;;;;5051507;28;20052;-73
2023/12/17 03:28:13;;;;;;;3.95;1.25;;;10.00;87.60;;;;;;5050365;28;20052;-73
2023/12/17 03:31:17;;;;;;;6.63;1.70;;;10.00;87.70;;;;;;5050604;28;20047;-74
2023/12/17 03:34:22;;;;;;;2.92;1.30;;;10.50;85.50;;;;;;5051139;28;20044;-74
2023/12/17 03:37:25;;;;;;;7.30;1.30;;;10.00;88.10;;;;;;5051193;28;20067;-74
2023/12/17 03:40:30;;;;;;;5.57;1.40;;;10.50;86.20;;;;;;5051081;28;20040;-73
2023/12/17 03:43:34;;;;;;;6.38;1.25;;;10.50;85.60;;;;;;5050992;28;20039;-74
2023/12/17 03:46:38;;;;;;;5.90;1.42;;;10.10;87.80;;;;;;5050356;28;20040;-74
2023/12/17 03:49:42;;;;;;;5.20;1.25;;;10.10;88.00;;;;;;5050204;28;20044;-74
2023/12/17 03:52:47;;;;;;;5.18;1.30;;;10.70;86.10;;;;;;5051076;28;20048;-73
2023/12/17 03:55:51;;;;;;;4.45;1.38;;;10.60;86.00;;;;;;5051221;28;20056;-74
2023/12/17 03:58:57;;;;;;;10.38;1.70;;;9.90;88.00;;;;;;5050972;28;20052;-74
2023/12/17 04:02:02;;;;;;;4.65;1.52;;;10.20;88.00;;;;;;5050814;28;20040;-74
2023/12/17 04:05:08;;;;;;;3.67;1.30;;;10.10;88.20;;;;;;5050304;28;20060;-73
2023/12/17 04:08:11;;;;;;;7.68;1.33;;;10.20;88.20;;;;;;5049801;28;20052;-73
2023/12/17 04:11:15;;;;;;;5.00;1.17;;;10.10;88.90;;;;;;5050991;28;20052;-74
2023/12/17 04:14:19;;;;;;;3.40;1.10;;;10.10;88.30;;;;;;5050711;28;20064;-74
2023/12/17 04:17:23;;;;;;;8.80;1.70;;;13.60;89.80;;;;;;5050893;28;20056;-73
2023/12/17 04:20:27;;;;;;;7.35;1.45;;;10.10;87.60;;;;;;5050665;28;20051;-73
2023/12/17 04:23:31;;;;;;;7.10;1.75;;;10.00;87.70;;;;;;5049766;28;20056;-73
2023/12/17 04:26:36;;;;;;;7.68;3.15;;;10.10;87.70;;;;;;5050794;28;20040;-73
2023/12/17 04:29:41;;;;;;;6.32;1.33;;;10.30;87.00;;;;;;5054585;28;20051;-73
2023/12/17 04:32:45;;;;;;;5.43;1.67;;;10.50;84.80;;;;;;5053941;28;20392;-73
2023/12/17 04:35:49;;;;;;;4.43;2.10;;;10.20;85.70;;;;;;5053886;28;20499;-74
2023/12/17 04:38:53;;;;;;;7.07;2.15;;;9.90;86.10;;;;;;5053534;28;20056;-74
2023/12/17 04:41:57;;;;;;;3.78;1.70;;;9.90;84.80;;;;;;5054398;28;20037;-74
2023/12/17 04:45:03;;;;;;;4.97;1.60;;;9.70;85.20;;;;;;5053230;28;20048;-74
2023/12/17 04:48:07;;;;;;;4.88;1.58;;;9.70;87.70;;;;;;5054104;28;20362;-72
2023/12/17 04:51:11;;;;;;;3.30;1.50;;;9.80;87.60;;;;;;5054314;28;20473;-72
2023/12/17 04:54:15;;;;;;;5.47;1.55;;;10.10;85.90;;;;;;5054266;28;20037;-73
2023/12/17 04:57:21;;;;;;;3.20;1.33;;;9.80;87.80;;;;;;5053109;28;20500;-73
2023/12/17 05:00:25;;;;;;;6.63;1.50;;;8.10;86.40;;;;;;5041966;28;20037;-73
2023/12/17 05:03:29;;;;;;;7.90;1.85;;;10.10;86.30;;;;;;5053994;28;20049;-73
2023/12/17 05:06:34;;;;;;;2.88;1.30;;;;;;;;;;5054155;28;20500;-73
2023/12/17 05:09:38;;;;;;;2.47;1.20;;;8.60;86.50;;;;;;5053792;28;20041;-74
2023/12/17 05:12:42;;;;;;;6.22;1.55;;;;;;;;;;5053845;28;20557;-72
2023/12/17 05:15:46;;;;;;;3.33;1.23;;;8.90;86.80;;;;;;5053866;28;20049;-73
2023/12/17 05:18:50;;;;;;;5.53;1.25;;;;;;;;;;5052504;28;20037;-72
2023/12/17 05:21:54;;;;;;;6.15;1.20;;;10.50;85.40;;;;;;5053715;28;20041;-72
2023/12/17 05:24:58;;;;;;;7.07;1.90;;;10.00;87.10;;;;;;5052461;28;20048;-73
2023/12/17 05:28:02;;;;;;;5.20;1.20;;;10.30;85.30;;;;;;5053565;28;20507;-73
2023/12/17 05:31:06;;;;;;;4.90;1.67;;;10.10;86.90;;;;;;5053644;28;20115;-73
2023/12/17 05:34:10;;;;;;;2.90;1.35;;;10.20;86.80;;;;;;5053549;28;20425;-73
2023/12/17 05:37:14;;;;;;;5.32;1.23;;;;;;;;;;5053545;28;20628;-73
2023/12/17 05:40:18;;;;;;;6.13;1.65;;;;;;;;;;5053199;28;20044;-73
2023/12/17 05:43:23;;;;;;;9.65;2.85;;;;;;;;;;5053057;28;20041;-73
2023/12/17 05:46:27;;;;;;;5.47;1.52;;;;;;;;;;5053231;28;20037;-73
2023/12/17 05:49:34;;;;;;;4.22;1.33;;;10.30;87.10;;;;;;5052798;28;20045;-73
2023/12/17 05:52:38;;;;;;;6.45;1.35;;;;;;;;;;5052828;28;20052;-73
2023/12/17 05:55:42;;;;;;;4.47;1.23;;;10.00;86.70;;;;;;5053024;28;20041;-73
2023/12/17 05:58:46;;;;;;;2.42;1.27;;;10.20;85.20;;;;;;5052959;28;20048;-73
2023/12/17 06:01:50;;;;;;;5.97;1.40;;;10.10;86.40;;;;;;5040768;28;20052;-72
2023/12/17 06:04:54;;;;;;;7.53;1.50;;;10.40;84.70;;;;;;5051837;28;20135;-72
2023/12/17 06:07:58;;;;;;;4.65;1.50;;;10.50;85.20;;;;;;5052416;28;20056;-72
2023/12/17 06:11:04;;;;;;;4.63;1.60;;;10.10;85.20;;;;;;5052486;28;20044;-73
2023/12/17 06:14:10;;;;;;;7.00;2.08;;;10.50;85.40;;;;;;5052368;28;20044;-73
2023/12/17 06:17:14;;;;;;;9.10;2.03;;;9.50;87.60;;;;;;5052604;28;20052;-73
2023/12/17 06:20:18;;;;;;;5.88;2.20;;;9.50;87.70;;;;;;5052511;28;20041;-73
2023/12/17 06:23:22;;;;;;;4.35;2.40;;;9.40;87.70;;;;;;5052467;28;20481;-73
2023/12/17 06:26:26;;;;;;;6.50;2.40;;;10.00;85.80;;;;;;5052528;28;20049;-73
2023/12/17 06:29:30;;;;;;;10.40;2.33;;;10.10;85.70;;;;;;5052395;28;20048;-73
2023/12/17 06:32:34;;;;;;;4.55;2.30;;;10.10;85.70;;;;;;5052452;28;20060;-73
2023/12/17 06:35:38;;;;;;;13.60;3.05;;;10.20;86.10;;;;;;5051614;28;20044;-73
2023/12/17 06:38:42;;;;;;;10.93;4.47;;;9.90;89.90;;;;;;5052060;28;20056;-73
2023/12/17 06:41:47;;;;;;;10.80;3.30;;;9.80;88.30;;;;;;5052218;28;20040;-73
2023/12/17 06:44:51;;;;;;;8.70;3.20;;;9.00;89.50;;;;;;5050921;28;20056;-74
2023/12/17 06:47:55;;;;;;;10.23;3.17;;;8.60;88.00;;;;;;5051090;28;20036;-73
2023/12/17 06:51:03;;;;;;;10.10;3.40;;;9.80;88.30;;;;;;5051681;28;20044;-74
2023/12/17 06:54:07;;;;;;;13.20;5.32;;;10.40;86.10;;;;;;5051084;28;20081;-73
2023/12/17 06:57:11;;;;;;;11.60;4.45;;;9.20;87.00;;;;;;5051712;28;20044;-74
2023/12/17 07:00:16;;;;;;;13.50;4.90;;;10.10;86.50;;;;;;5051937;28;20043;-73
2023/12/17 07:03:20;;;;;;;10.27;5.95;;;9.90;89.20;;;;;;5051588;28;20048;-73
2023/12/17 07:06:24;;;;;;;11.98;5.50;;;9.70;89.00;;;;;;5051617;28;20044;-73
2023/12/17 07:09:28;;;;;;;9.90;4.50;;;10.00;87.90;;;;;;5051188;28;20508;-73
2023/12/17 07:12:32;;;;;;;12.25;6.50;;;;;;;;;;5051612;28;20496;-73
2023/12/17 07:15:36;;;;;;;8.90;4.03;;;10.00;87.60;;;;;;5051507;28;20054;-73
2023/12/17 07:18:41;;;;;;;11.05;4.25;;;;;;;;;;5050191;28;20389;-73
2023/12/17 07:21:45;;;;;;;9.48;4.28;;;;;;;;;;5051323;28;20040;-73
2023/12/17 07:24:50;;;;;;;12.65;5.10;;;;;;;;;;5050145;28;20049;-73
2023/12/17 07:27:54;;;;;;;13.85;3.90;;;;;;;;;;5051028;28;20396;-73
2023/12/17 07:30:58;;;;;;;8.85;3.78;;;;;;;;;;5050304;28;20053;-73
2023/12/17 07:34:03;;;;;;;5.85;3.13;;;;;;;;;;5051419;28;20033;-73
2023/12/17 07:37:07;;;;;;;11.65;3.10;;;;;;;;;;5051385;28;20044;-73
2023/12/17 07:40:11;;;;;;;9.65;5.00;;;;;;;;;;5051643;28;20044;-73
2023/12/17 07:43:16;;;;;;;22.48;6.20;;;;;;;;;;5050898;28;20040;-73
2023/12/17 07:46:20;;;;;;;14.05;6.40;;;;;;;;;;5049914;28;20675;-73
2023/12/17 07:49:25;;;;;;;13.52;5.53;;;11.10;87.00;;;;;;5050059;28;20040;-73
2023/12/17 07:52:29;;;;;;;17.98;7.68;;;;;;;;;;5050891;28;20052;-73
2023/12/17 07:55:36;;;;;;;21.15;8.93;;;12.30;87.60;;;;;;5051041;28;20040;-73
2023/12/17 07:58:40;;;;;;;10.50;5.50;;;;;;;;;;5050692;28;20428;-74
2023/12/17 08:01:44;;;;;;;7.55;3.83;;;;;;;;;;5050700;28;20104;-73
2023/12/17 08:04:50;;;;;;;11.55;4.50;;;;;;;;;;5053898;28;20449;-72
2023/12/17 08:07:54;;;;;;;18.70;5.82;;;;;;;;;;5053800;28;20045;-73
2023/12/17 08:10:58;;;;;;;7.90;3.55;;;;;;;;;;5055079;28;20496;-73
2023/12/17 08:14:03;;;;;;;5.47;2.10;;;13.20;81.60;;;;;;5054994;28;20392;-73
2023/12/17 08:17:07;;;;;;;4.40;2.30;;;;;;;;;;5055046;28;20044;-73
2023/12/17 08:20:11;;;;;;;7.85;2.00;;;;;;;;;;5054485;28;20041;-73
2023/12/17 08:23:16;;;;;;;9.75;3.28;;;;;;;;;;5054669;28;20037;-73
2023/12/17 08:26:21;;;;;;;4.70;2.22;;;13.70;79.60;;;;;;5042382;28;20049;-73
2023/12/17 08:29:26;;;;;;;7.40;3.10;;;;;;;;;;5054946;28;20044;-74
2023/12/17 08:32:33;;;;;;;10.10;2.92;;;;;;;;;;5054607;28;20044;-74
2023/12/17 08:35:38;;;;;;;5.45;2.03;;;;;;;;;;5054313;28;20476;-73
2023/12/17 08:38:45;;;;;;;6.28;1.90;;;;;;;;;;5053686;28;20377;-73
2023/12/17 08:41:50;;;;;;;3.10;1.38;;;13.60;79.00;;;;;;5054569;28;20045;-74
2023/12/17 08:44:54;;;;;;;7.53;2.10;;;;;;;;;;5054065;28;20519;-73
2023/12/17 08:47:59;;;;;;;4.30;1.58;;;;;;;;;;5053958;28;20033;-72
2023/12/17 08:51:04;;;;;;;4.22;1.60;;;;;;;;;;5053511;28;20041;-74
2023/12/17 08:54:12;;;;;;;6.93;1.83;;;;;;;;;;5042465;28;20041;-72
2023/12/17 08:57:18;;;;;;;6.93;2.13;;;;;;;;;;5054213;28;20044;-72
2023/12/17 09:00:22;;;;;;;6.18;1.80;;;;;;;;;;5054002;28;20476;-73
2023/12/17 09:03:26;;;;;;;5.43;2.70;;;;;;;;;;5054031;28;20099;-74
2023/12/17 09:06:30;;;;;;;5.82;1.80;;;;;;;;;;5054025;28;20485;-73
2023/12/17 09:09:34;;;;;;;4.57;1.67;;;;;;;;;;5053273;28;20049;-74
2023/12/17 09:12:39;;;;;;;12.25;1.98;;;;;;;;;;5053950;28;20045;-74
2023/12/17 09:15:43;;;;;;;7.10;1.95;;;;;;;;;;5053855;28;20049;-74
2023/12/17 09:18:49;;;;;;;10.55;2.15;;;14.50;78.50;;;;;;5053660;28;20040;-74
2023/12/17 09:21:53;;;;;;;7.85;1.58;;;;;;;;;;5052843;28;20530;-74
2023/12/17 09:24:57;;;;;;;9.73;2.05;;;;;;;;;;5053272;28;20052;-74
2023/12/17 09:28:02;;;;;;;8.73;2.50;;;14.20;76.70;;;;;;5053353;28;20040;-74
2023/12/17 09:31:08;;;;;;;7.90;1.95;;;;;;;;;;5053483;28;20408;-73
2023/12/17 09:34:15;;;;;;;5.47;1.67;;;;;;;;;;5052481;28;20481;-74
2023/12/17 09:37:20;;;;;;;8.02;2.17;;;;;;;;;;5052357;28;20037;-74
2023/12/17 09:40:24;;;;;;;5.32;1.83;;;;;;;;;;5053216;28;20477;-74
2023/12/17 09:43:29;;;;;;;4.82;1.80;;;;;;;;;;5052398;28;20041;-74
2023/12/17 09:46:33;;;;;;;5.68;2.17;;;;;;;;;;5053241;28;20057;-74
2023/12/17 09:49:38;;;;;;;7.35;2.50;;;;;;;;;;5053123;28;20041;-74
2023/12/17 09:52:42;;;;;;;3.40;1.98;;;;;;;;;;5052301;28;20044;-74
2023/12/17 09:55:49;;;;;;;5.97;2.55;;;;;;;;;;5052253;28;20037;-73
2023/12/17 09:58:53;;;;;;;3.97;1.85;;;;;;;;;;5052046;28;20037;-73
2023/12/17 10:01:58;;;;;;;5.60;2.13;;;;;;;;;;5052862;28;20033;-74
2023/12/17 10:05:02;;;;;;;7.53;2.40;;;;;;;;;;5051866;28;20049;-74
2023/12/17 10:08:07;;;;;;;5.90;2.50;;;;;;;;;;5052557;28;20639;-74
2023/12/17 10:11:11;;;;;;;6.95;2.40;;;;;;;;;;5051854;28;20049;-74
2023/12/17 10:14:23;;;;;;;6.85;2.63;;;15.60;73.90;;;;;;5051747;28;20041;-74
2023/12/17 10:17:28;;;;;;;7.75;2.80;;;;;;;;;;5052550;28;20056;-74
2023/12/17 10:20:32;;;;;;;8.68;3.35;;;;;;;;;;5051773;28;20033;-74
2023/12/17 10:23:49;;;;;;;5.53;2.70;;;16.00;73.20;;;;;;5051389;28;20481;-74
2023/12/17 10:26:55;;;;;;;11.98;4.00;;;;;;;;;;5050632;28;20052;-74
2023/12/17 10:30:02;;;;;;;8.30;3.70;;;16.10;73.90;;;;;;5051114;28;20044;-74
2023/12/17 10:33:09;;;;;;;6.25;3.10;;;;;;;;;;5051096;28;20043;-73
2023/12/17 10:36:14;;;;;;;6.55;2.80;;;;;;;;;;5052377;28;20546;-74
2023/12/17 10:39:19;;;;;;;4.93;2.70;;;16.30;73.80;;;;;;5052055;28;20048;-73
2023/12/17 10:42:25;;;;;;;6.40;2.75;;;;;;;;;;5051077;28;20210;-74
2023/12/17 10:45:29;;;;;;;11.23;2.55;;;;;;;;;;5050741;28;20041;-74
2023/12/17 10:48:33;;;;;;;4.13;2.58;;;;;;;;;;5051758;28;20037;-74
2023/12/17 10:51:42;;;;;;;5.82;2.83;;;17.40;72.70;;;;;;5051013;28;20037;-74
2023/12/17 10:54:46;;;;;;;5.25;2.60;;;;;;;;;;5051601;28;20044;-74
2023/12/17 10:58:02;;;;;;;8.90;3.50;;;16.30;72.00;;;;;;5051590;28;20041;-74
2023/12/17 11:01:06;;;;;;;5.55;2.88;;;;;;;;;;5051844;28;20048;-74
2023/12/17 11:04:10;;;;;;;6.20;2.60;;;;;;;;;;5051779;28;20041;-74
2023/12/17 11:07:16;;;;;;;6.68;2.63;;;;;;;;;;5051554;28;20049;-73
2023/12/17 11:10:21;;;;;;;5.55;2.30;;;;;;;;;;5051715;28;20049;-74
2023/12/17 11:13:25;;;;;;;5.75;2.58;;;;;;;;;;5051698;28;20493;-74
2023/12/17 11:16:30;;;;;;;9.13;2.42;;;;;;;;;;5050599;28;20041;-74
2023/12/17 11:19:35;;;;;;;7.32;2.97;;;;;;;;;;5051181;28;20175;-74
2023/12/17 11:22:39;;;;;;;9.60;5.60;;;;;;;;;;5051367;28;20429;-74
2023/12/17 11:25:46;;;;;;;9.32;3.00;;;14.20;71.30;;;;;;5051017;28;20477;-74
2023/12/17 11:28:52;;;;;;;7.32;3.20;;;;;;;;;;5050826;28;20084;-74
2023/12/17 11:31:56;;;;;;;6.80;3.58;;;;;;;;;;5050239;28;20041;-73
2023/12/17 11:35:01;;;;;;;7.45;2.47;;;;;;;;;;5051235;28;20049;-73
2023/12/17 11:38:05;;;;;;;10.48;2.95;;;;;;;;;;5050967;28;20037;-73
2023/12/17 11:41:09;;;;;;;5.07;2.58;;;;;;;;;;5051106;28;20037;-73
2023/12/17 11:44:14;;;;;;;8.05;2.70;;;;;;;;;;5050737;28;20033;-73
2023/12/17 11:47:27;;;;;;;4.43;2.80;;;14.40;74.20;;;;;;5050234;28;20037;-73
2023/12/17 11:50:41;;;;;;;6.82;3.10;;;14.20;73.40;;;;;;5050950;28;20381;-75
2023/12/17 11:53:46;;;;;;;7.38;2.95;;;;;;;;;;5050825;28;20044;-73
2023/12/17 11:56:50;;;;;;;4.78;2.50;;;;;;;;;;5051065;28;20056;-72
2023/12/17 11:59:55;;;;;;;10.20;2.90;;;;;;;;;;5051067;28;20370;-73
2023/12/17 12:02:59;;;;;;;7.18;3.25;;;;;;;;;;5050142;28;20036;-73
2023/12/17 12:06:10;;;;;;;10.05;3.70;;;14.80;74.10;;;;;;5049738;28;20053;-73
2023/12/17 12:09:18;;;;;;;9.82;3.70;;;14.80;75.40;;;;;;5050580;28;20052;-73
2023/12/17 12:12:25;;;;;;;9.77;4.20;;;;;;;;;;5050965;28;20044;-73
2023/12/17 12:15:29;;;;;;;4.53;2.83;;;;;;;;;;5050912;28;20041;-72
2023/12/17 12:18:37;;;;;;;12.57;4.57;;;;;;;;;;5050676;28;20048;-73
2023/12/17 12:21:41;;;;;;;10.18;4.72;;;;;;;;;;5050584;28;20041;-72
2023/12/17 12:24:46;;;;;;;12.60;6.43;;;;;;;;;;5050639;28;20043;-72
2023/12/17 12:27:50;;;;;;;5.82;2.83;;;;;;;;;;5050465;28;20048;-73
2023/12/17 12:30:56;;;;;;;7.82;4.65;;;;;;;;;;5050624;28;20037;-73
2023/12/17 12:34:03;;;;;;;8.20;3.45;;;14.10;75.40;;;;;;5050727;28;20048;-73
2023/12/17 12:37:07;;;;;;;9.82;3.20;;;;;;;;;;5049815;28;20048;-74
2023/12/17 12:40:12;;;;;;;7.45;3.03;;;;;;;;;;5049522;28;20033;-74
2023/12/17 12:43:17;;;;;;;8.00;2.90;;;;;;;;;;5050006;28;20037;-74
2023/12/17 12:46:22;;;;;;;7.03;2.92;;;;;;;;;;5050275;28;20049;-74
2023/12/17 12:49:28;;;;;;;9.63;4.72;;;14.60;74.80;;;;;;5052209;28;20037;-74
2023/12/17 12:52:32;;;;;;;9.57;3.90;;;;;;;;;;5054013;28;20535;-74
2023/12/17 12:55:36;;;;;;;4.28;2.33;;;;;;;;;;5054608;28;20041;-73
2023/12/17 12:58:42;;;;;;;6.72;3.20;;;;;;;;;;5053320;28;20383;-73
2023/12/17 13:01:46;;;;;;;8.73;2.95;;;;;;;;;;5053347;28;20374;-74
2023/12/17 13:04:50;;;;;;;7.40;3.20;;;;;;;;;;5054318;28;20045;-74
2023/12/17 13:07:54;;;;;;;7.13;4.88;;;;;;;;;;5053319;28;20493;-73
2023/12/17 13:10:59;;;;;;;6.95;3.67;;;;;;;;;;5054224;28;20033;-74
2023/12/17 13:14:03;;;;;;;14.52;6.10;;;;;;;;;;5053209;28;20045;-74
2023/12/17 13:17:08;;;;;;;6.90;3.33;;;;;;;;;;5053052;28;20370;-74
2023/12/17 13:20:12;;;;;;;6.20;3.28;;;;;;;;;;5053904;28;20045;-73
2023/12/17 13:23:16;;;;;;;5.38;2.35;;;;;;;;;;5053684;28;20049;-73
2023/12/17 13:26:21;;;;;;;7.90;3.35;;;;;;;;;;5052573;28;20381;-73
2023/12/17 13:29:25;;;;;;;7.25;4.57;;;;;;;;;;5053130;28;20029;-74
2023/12/17 13:32:29;;;;;;;5.13;2.00;;;;;;;;;;5053343;28;20037;-74
2023/12/17 13:35:33;;;;;;;4.82;3.28;;;;;;;;;;5053581;28;20029;-73
2023/12/17 13:38:38;;;;;;;5.22;2.28;;;;;;;;;;5052613;28;20394;-73
2023/12/17 13:41:42;;;;;;;5.30;2.50;;;;;;;;;;5052627;28;20033;-73
2023/12/17 13:44:47;;;;;;;9.68;2.72;;;;;;;;;;5053243;28;20041;-73
2023/12/17 13:47:51;;;;;;;6.53;3.05;;;;;;;;;;5053214;28;20045;-73
2023/12/17 13:50:56;;;;;;;6.07;2.80;;;;;;;;;;5053344;28;20037;-73
2023/12/17 13:54:00;;;;;;;7.75;3.17;;;;;;;;;;5053208;28;20075;-73
2023/12/17 13:57:06;;;;;;;10.68;3.80;;;14.30;76.80;;;;;;5052154;28;20033;-73
2023/12/17 14:00:10;;;;;;;5.25;2.72;;;;;;;;;;5050946;28;20048;-73
2023/12/17 14:03:15;;;;;;;5.78;2.30;;;;;;;;;;5052102;28;20037;-73
2023/12/17 14:06:20;;;;;;;5.18;2.72;;;;;;;;;;5052590;28;20053;-72
2023/12/17 14:09:24;;;;;;;6.15;3.05;;;;;;;;;;5051466;28;20049;-73
2023/12/17 14:12:28;;;;;;;6.50;3.17;;;;;;;;;;5051733;28;20469;-72
2023/12/17 14:15:32;;;;;;;11.00;4.90;;;;;;;;;;5052821;28;20032;-72
2023/12/17 14:18:37;;;;;;;4.22;2.20;;;;;;;;;;5052589;28;20041;-72
2023/12/17 14:21:44;;;;;;;6.43;2.55;;;13.10;77.40;;;;;;5052652;28;20033;-72
2023/12/17 14:24:50;;;;;;;5.93;3.60;;;;;;;;;;5052632;28;20067;-74
2023/12/17 14:27:54;;;;;;;13.30;5.22;;;;;;;;;;5039976;28;20032;-73
2023/12/17 14:30:59;;;;;;;9.25;4.65;;;;;;;;;;5052551;28;20033;-73
2023/12/17 14:34:03;;;;;;;12.00;5.10;;;;;;;;;;5052508;28;20049;-73
2023/12/17 14:37:08;;;;;;;10.60;5.45;;;;;;;;;;5052351;28;20049;-72
2023/12/17 14:40:12;;;;;;;8.70;3.75;;;;;;;;;;5052372;28;20040;-73
2023/12/17 14:43:17;;;;;;;10.93;4.65;;;;;;;;;;5052545;28;20041;-73
2023/12/17 14:46:21;;;;;;;9.80;2.97;;;;;;;;;;5051900;28;20062;-72
2023/12/17 14:49:26;;;;;;;8.52;3.50;;;;;;;;;;5051952;28;20036;-72
2023/12/17 14:52:31;;;;;;;7.18;3.90;;;;;;;;;;5051645;28;20041;-73
2023/12/17 14:55:35;;;;;;;11.65;4.20;;;;;;;;;;5051240;28;20033;-73
2023/12/17 14:58:39;;;;;;;8.38;3.92;;;;;;;;;;5051096;28;20064;-73
2023/12/17 15:01:46;;;;;;;8.77;4.53;;;13.80;78.00;;;;;;5051773;28;20037;-73
2023/12/17 15:04:51;;;;;;;9.60;4.55;;;;;;;;;;5050884;28;20056;-73
2023/12/17 15:07:55;;;;;;;6.97;3.88;;;;;;;;;;5051489;28;20053;-73
2023/12/17 15:10:59;;;;;;;12.23;8.15;;;;;;;;;;5051966;28;20037;-72
2023/12/17 15:14:04;;;;;;;10.73;5.43;;;;;;;;;;5053129;28;20041;-73
2023/12/17 15:17:08;;;;;;;7.90;4.00;;;;;;;;;;5051362;28;20033;-72
2023/12/17 15:20:12;;;;;;;15.18;6.20;;;;;;;;;;5051518;28;20033;-72
2023/12/17 15:23:16;;;;;;;11.65;4.88;;;;;;;;;;5051346;28;20037;-73
2023/12/17 15:26:21;;;;;;;8.95;4.00;;;;;;;;;;5051009;28;20087;-73
2023/12/17 15:29:25;;;;;;;10.98;4.93;;;;;;;;;;5051387;28;20037;-72
2023/12/17 15:32:29;;;;;;;13.85;5.30;;;;;;;;;;5051137;28;20048;-71
2023/12/17 15:35:34;;;;;;;21.67;8.65;;;;;;;;;;5051212;28;20044;-74
2023/12/17 15:38:39;;;;;;;15.40;7.93;;;;;;;;;;5051127;28;20037;-73
2023/12/17 15:41:44;;;;;;;21.73;9.80;;;;;;;;;;5051325;28;20040;-74
2023/12/17 15:44:48;;;;;;;9.52;4.25;;;;;;;;;;5051119;28;20056;-73
2023/12/17 15:47:52;;;;;;;17.67;6.97;;;;;;;;;;5051138;28;20378;-74
2023/12/17 15:50:57;;;;;;;10.95;5.78;;;;;;;;;;5051282;28;20048;-74
2023/12/17 15:54:02;;;;;;;23.52;8.07;;;;;;;;;;5051203;28;20044;-74
2023/12/17 15:57:06;;;;;;;27.23;12.50;;;;;;;;;;5051177;28;20401;-74
2023/12/17 16:00:12;;;;;;;15.70;6.80;;;;;;;;;;5050879;28;20056;-74
2023/12/17 16:03:16;;;;;;;22.08;10.02;;;;;;;;;;5050851;28;20473;-74
2023/12/17 16:06:20;;;;;;;31.48;13.73;;;;;;;;;;5050435;28;20621;-74
2023/12/17 16:09:24;;;;;;;28.95;12.65;;;;;;;;;;5049528;28;20072;-74
2023/12/17 16:12:29;;;;;;;36.83;20.00;;;;;;;;;;5049814;28;20048;-74
2023/12/17 16:15:33;;;;;;;23.50;10.70;;;;;;;;;;5049770;28;20044;-74
2023/12/17 16:18:38;;;;;;;27.50;16.77;;;;;;;;;;5050746;28;20040;-73
2023/12/17 16:21:43;;;;;;;22.83;9.73;;;;;;;;;;5050471;28;20044;-74
2023/12/17 16:24:47;;;;;;;27.10;14.15;;;;;;;;;;5053186;28;20396;-73
2023/12/17 16:27:52;;;;;;;36.55;15.32;;;;;;;;;;5054428;28;20044;-74
2023/12/17 16:30:57;;;;;;;27.38;14.77;;;;;;;;;;5054106;28;20095;-74
2023/12/17 16:34:01;;;;;;;23.55;15.15;;;;;;;;;;5053643;28;20044;-74
2023/12/17 16:37:06;;;;;;;35.17;18.25;;;;;;;;;;5054544;28;20393;-74
2023/12/17 16:40:10;;;;;;;46.65;25.05;;;;;;;;;;5054481;28;20048;-74
2023/12/17 16:43:14;;;;;;;41.17;19.98;;;;;;;;;;5053565;28;20528;-74
2023/12/17 16:46:19;;;;;;;31.58;16.02;;;;;;;;;;5054217;28;20056;-74
2023/12/17 16:49:23;;;;;;;35.78;17.58;;;;;;;;;;5041947;28;20044;-74
2023/12/17 16:52:28;;;;;;;30.05;16.30;;;;;;;;;;5053203;28;20075;-74
2023/12/17 16:55:33;;;;;;;40.88;23.65;;;12.10;86.90;;;;;;5053447;28;20048;-74
2023/12/17 16:58:38;;;;;;;37.20;20.67;;;;;;;;;;5052970;28;20404;-74
2023/12/17 17:01:52;;;;;;;27.05;16.77;;;12.10;86.50;;;;;;5054214;28;20044;-74
2023/12/17 17:04:57;;;;;;;25.85;16.10;;;;;;;;;;5054098;28;20068;-74
2023/12/17 17:08:01;;;;;;;28.70;12.65;;;;;;;;;;5053472;28;20532;-74
2023/12/17 17:11:05;;;;;;;23.85;13.85;;;;;;;;;;5054186;28;20049;-74
2023/12/17 17:14:10;;;;;;;30.80;15.50;;;;;;;;;;5052902;28;20040;-74
2023/12/17 17:17:14;;;;;;;30.10;16.33;;;;;;;;;;5053361;28;20059;-74
2023/12/17 17:20:20;;;;;;;32.03;16.45;;;;;;;;;;5053675;28;20051;-74